createdAt,value
2019-03-28T00:00:08.069Z,26.37
2019-03-28T00:02:37.270Z,25.23
2019-03-28T00:05:06.689Z,32.42
2019-03-28T00:07:36.172Z,29.60
2019-03-28T00:10:05.693Z,31.45
2019-03-28T00:12:34.909Z,32.70
2019-03-28T00:15:04.410Z,40.45
2019-03-28T00:17:33.725Z,33.20
2019-03-28T00:20:04.333Z,32.55
2019-03-28T00:22:57.036Z,37.10
2019-03-28T00:25:27.402Z,32.67
2019-03-28T00:27:56.668Z,37.63
2019-03-28T00:30:25.951Z,39.53
2019-03-28T00:32:55.186Z,38.10
2019-03-28T00:35:24.534Z,33.20
2019-03-28T00:37:53.779Z,39.20
2019-03-28T00:40:23.087Z,37.95
2019-03-28T00:42:52.599Z,45.00
2019-03-28T00:45:21.854Z,41.20
2019-03-28T00:47:51.135Z,40.23
2019-03-28T00:50:20.614Z,44.00
2019-03-28T00:52:49.858Z,40.48
2019-03-28T00:55:19.118Z,43.23
2019-03-28T00:57:48.412Z,45.28
2019-03-28T01:00:18.065Z,43.75
2019-03-28T01:02:47.803Z,37.48
2019-03-28T01:05:17.388Z,33.28
2019-03-28T01:07:47.268Z,38.55
2019-03-28T01:10:16.985Z,34.40
2019-03-28T01:12:46.224Z,38.95
2019-03-28T01:15:15.613Z,36.40
2019-03-28T01:17:44.842Z,39.25
2019-03-28T01:20:14.433Z,38.28
2019-03-28T01:22:43.776Z,41.50
2019-03-28T01:25:13.110Z,38.78
2019-03-28T01:27:42.596Z,32.08
2019-03-28T01:30:12.119Z,34.95
2019-03-28T01:32:41.370Z,37.42
2019-03-28T01:35:10.761Z,34.45
2019-03-28T01:37:40.231Z,35.43
2019-03-28T01:40:09.792Z,36.40
2019-03-28T01:42:39.552Z,38.35
2019-03-28T01:45:09.197Z,35.78
2019-03-28T01:47:38.451Z,34.83
2019-03-28T01:50:09.312Z,39.48
2019-03-28T01:52:38.809Z,36.58
2019-03-28T01:55:08.426Z,40.83
2019-03-28T01:57:38.286Z,43.13
2019-03-28T02:00:08.452Z,37.00
2019-03-28T02:02:37.953Z,39.92
2019-03-28T02:05:08.077Z,37.17
2019-03-28T02:07:37.553Z,41.70
2019-03-28T02:10:07.672Z,42.62
2019-03-28T02:12:36.925Z,42.03
2019-03-28T02:15:07.202Z,42.40
2019-03-28T02:17:37.259Z,37.90
2019-03-28T02:20:07.122Z,36.65
2019-03-28T02:22:36.377Z,40.55
2019-03-28T02:25:06.030Z,39.00
2019-03-28T02:27:35.541Z,37.35
2019-03-28T02:30:06.325Z,37.35
2019-03-28T02:32:35.823Z,40.43
2019-03-28T02:35:05.966Z,48.70
2019-03-28T02:37:35.211Z,40.60
2019-03-28T02:40:05.061Z,44.90
2019-03-28T02:42:34.297Z,44.03
2019-03-28T02:45:04.275Z,40.50
2019-03-28T02:47:33.493Z,40.20
2019-03-28T02:50:02.742Z,40.52
2019-03-28T02:52:32.451Z,41.55
2019-03-28T02:55:02.204Z,38.42
2019-03-28T02:57:40.952Z,42.35
2019-03-28T03:00:02.712Z,41.23
2019-03-28T03:02:32.687Z,40.20
2019-03-28T03:05:02.373Z,43.00
2019-03-28T03:07:33.343Z,45.75
2019-03-28T03:10:02.856Z,44.38
2019-03-28T03:12:32.080Z,41.23
2019-03-28T03:15:01.804Z,46.80
2019-03-28T03:17:31.037Z,46.13
2019-03-28T03:20:00.386Z,46.02
2019-03-28T03:22:29.634Z,43.38
2019-03-28T03:24:59.120Z,52.03
2019-03-28T03:27:28.608Z,45.12
2019-03-28T03:29:58.352Z,47.08
2019-03-28T03:32:27.827Z,46.85
2019-03-28T03:34:57.107Z,44.10
2019-03-28T03:37:26.838Z,51.90
2019-03-28T03:39:56.368Z,51.77
2019-03-28T03:42:26.195Z,49.23
2019-03-28T03:44:55.440Z,49.13
2019-03-28T03:47:24.750Z,53.65
2019-03-28T03:49:54.465Z,52.62
2019-03-28T03:52:23.961Z,51.50
2019-03-28T03:54:53.451Z,50.40
2019-03-28T03:57:22.978Z,53.68
2019-03-28T03:59:52.186Z,47.67
2019-03-28T04:02:21.649Z,57.05
2019-03-28T04:04:51.120Z,50.10
2019-03-28T04:07:20.355Z,50.48
2019-03-28T04:09:49.585Z,52.00
2019-03-28T04:12:19.062Z,50.30
2019-03-28T04:14:48.295Z,49.03
2019-03-28T04:17:18.297Z,51.83
2019-03-28T04:19:48.247Z,51.73
2019-03-28T04:22:17.784Z,50.90
2019-03-28T04:24:47.727Z,48.70
2019-03-28T04:27:17.306Z,54.88
2019-03-28T04:29:46.517Z,47.38
2019-03-28T04:32:15.986Z,44.63
2019-03-28T04:34:45.229Z,52.73
2019-03-28T04:37:14.682Z,51.92
2019-03-28T04:39:44.077Z,46.50
2019-03-28T04:42:13.298Z,49.80
2019-03-28T04:44:42.528Z,47.73
2019-03-28T04:47:12.011Z,49.03
2019-03-28T04:49:41.720Z,51.37
2019-03-28T04:52:11.447Z,50.55
2019-03-28T04:54:40.711Z,49.03
2019-03-28T04:57:10.184Z,52.27
2019-03-28T04:59:39.695Z,50.17
2019-03-28T05:02:09.014Z,57.20
2019-03-28T05:04:38.496Z,48.58
2019-03-28T05:07:07.993Z,54.53
2019-03-28T05:09:37.718Z,44.58
2019-03-28T05:12:07.212Z,51.77
2019-03-28T05:14:36.439Z,49.38
2019-03-28T05:17:05.658Z,52.30
2019-03-28T05:19:35.452Z,55.60
2019-03-28T05:22:04.666Z,53.50
2019-03-28T05:24:34.165Z,64.15
2019-03-28T05:27:03.394Z,50.67
2019-03-28T05:29:32.644Z,49.85
2019-03-28T05:32:01.888Z,55.58
2019-03-28T05:34:31.630Z,74.22
2019-03-28T05:37:00.934Z,68.72
2019-03-28T05:39:30.193Z,55.98
2019-03-28T05:42:01.813Z,53.85
2019-03-28T05:44:31.563Z,52.60
2019-03-28T05:47:00.792Z,54.63
2019-03-28T05:49:30.324Z,52.75
2019-03-28T05:52:00.029Z,57.20
2019-03-28T05:54:29.354Z,47.83
2019-03-28T05:56:59.065Z,49.75
2019-03-28T05:59:28.320Z,58.15
2019-03-28T06:01:58.271Z,48.55
2019-03-28T06:04:28.236Z,53.50
2019-03-28T06:06:57.458Z,50.75
2019-03-28T06:09:26.682Z,48.17
2019-03-28T06:11:56.405Z,50.70
2019-03-28T06:14:26.927Z,54.00
2019-03-28T06:16:56.145Z,50.95
2019-03-28T06:19:25.630Z,50.63
2019-03-28T06:21:55.086Z,52.78
2019-03-28T06:24:24.570Z,49.48
2019-03-28T06:26:54.038Z,42.83
2019-03-28T06:29:24.474Z,48.58
2019-03-28T06:31:55.878Z,46.10
2019-03-28T06:34:26.440Z,47.30
2019-03-28T06:36:56.059Z,50.03
2019-03-28T06:39:25.822Z,48.33
2019-03-28T06:41:55.292Z,46.28
2019-03-28T06:44:24.534Z,47.03
2019-03-28T06:46:54.057Z,48.65
2019-03-28T06:49:23.565Z,51.80
2019-03-28T06:51:53.046Z,47.62
2019-03-28T06:54:24.277Z,51.85
2019-03-28T06:56:53.772Z,50.15
2019-03-28T06:59:36.274Z,53.52
2019-03-28T07:01:54.214Z,54.42
2019-03-28T07:04:23.692Z,59.38
2019-03-28T07:06:53.326Z,51.55
2019-03-28T07:09:25.695Z,56.15
2019-03-28T07:11:54.984Z,62.17
2019-03-28T07:14:25.393Z,58.05
2019-03-28T07:16:56.167Z,49.48
2019-03-28T07:19:25.700Z,51.35
2019-03-28T07:21:54.960Z,54.38
2019-03-28T07:24:24.185Z,50.30
2019-03-28T07:26:53.569Z,50.85
2019-03-28T07:29:23.065Z,54.08
2019-03-28T07:31:52.560Z,53.83
2019-03-28T07:34:21.831Z,48.30
2019-03-28T07:36:51.051Z,59.58
2019-03-28T07:39:20.910Z,57.70
2019-03-28T07:41:50.123Z,49.70
2019-03-28T07:44:19.898Z,53.00
2019-03-28T07:46:49.403Z,53.35
2019-03-28T07:49:18.644Z,54.18
2019-03-28T07:51:48.306Z,51.83
2019-03-28T07:54:18.390Z,48.87
2019-03-28T07:56:48.289Z,41.75
2019-03-28T07:59:17.526Z,41.45
2019-03-28T08:01:47.267Z,39.60
2019-03-28T08:04:17.305Z,45.83
2019-03-28T08:06:50.063Z,47.03
2019-03-28T08:09:17.855Z,38.43
2019-03-28T08:11:48.422Z,35.80
2019-03-28T08:14:17.670Z,33.83
2019-03-28T08:16:46.938Z,31.07
2019-03-28T08:19:16.244Z,27.15
2019-03-28T08:21:46.334Z,28.40
2019-03-28T08:24:15.596Z,34.90
2019-03-28T08:26:45.425Z,40.15
2019-03-28T08:29:14.670Z,36.20
2019-03-28T08:31:45.797Z,31.57
2019-03-28T08:34:15.354Z,32.80
2019-03-28T08:36:45.063Z,31.05
2019-03-28T08:39:14.738Z,37.85
2019-03-28T08:41:44.626Z,30.37
2019-03-28T08:44:13.908Z,34.90
2019-03-28T08:46:43.547Z,29.87
2019-03-28T08:49:12.866Z,32.08
2019-03-28T08:51:42.437Z,32.10
2019-03-28T08:54:11.677Z,31.42
2019-03-28T08:56:41.239Z,34.78
2019-03-28T08:59:11.073Z,24.10
2019-03-28T09:01:40.673Z,29.42
2019-03-28T09:04:09.931Z,20.15
2019-03-28T09:06:39.576Z,28.38
2019-03-28T09:09:10.428Z,22.13
2019-03-28T09:11:40.344Z,22.85
2019-03-28T09:14:09.830Z,24.50
2019-03-28T09:16:39.429Z,22.67
2019-03-28T09:19:09.049Z,20.02
2019-03-28T09:21:38.392Z,17.67
2019-03-28T09:24:07.878Z,19.42
2019-03-28T09:26:37.380Z,23.32
2019-03-28T09:29:06.701Z,19.23
2019-03-28T09:31:36.008Z,19.48
2019-03-28T09:34:05.269Z,19.42
2019-03-28T09:36:35.023Z,17.95
2019-03-28T09:39:07.442Z,18.42
2019-03-28T09:41:36.677Z,15.88
2019-03-28T09:44:06.152Z,19.12
2019-03-28T09:46:35.760Z,21.10
2019-03-28T09:49:05.655Z,20.62
2019-03-28T09:51:35.405Z,20.62
2019-03-28T09:54:05.393Z,18.77
2019-03-28T09:56:34.677Z,22.93
2019-03-28T09:59:03.966Z,24.23
2019-03-28T10:01:33.840Z,21.42
2019-03-28T10:04:06.295Z,17.70
2019-03-28T10:06:34.778Z,17.62
2019-03-28T10:09:05.473Z,19.37
2019-03-28T10:11:34.968Z,13.28
2019-03-28T10:14:04.315Z,14.20
2019-03-28T10:16:33.813Z,13.55
2019-03-28T10:19:03.368Z,12.43
2019-03-28T10:21:33.312Z,13.55
2019-03-28T10:24:04.060Z,14.05
2019-03-28T10:26:33.816Z,10.80
2019-03-28T10:29:03.270Z,12.65
2019-03-28T10:31:32.978Z,17.20
2019-03-28T10:34:02.632Z,21.27
2019-03-28T10:36:32.190Z,18.40
2019-03-28T10:39:02.087Z,15.58
2019-03-28T10:41:32.132Z,11.73
2019-03-28T10:44:01.725Z,12.63
2019-03-28T10:46:31.270Z,6.15
2019-03-28T10:49:01.327Z,9.23
2019-03-28T10:51:30.560Z,6.92
2019-03-28T10:54:00.055Z,6.10
2019-03-28T10:56:32.451Z,5.20
2019-03-28T10:59:01.673Z,6.55
2019-03-28T11:01:47.566Z,10.20
2019-03-28T11:04:03.300Z,8.83
2019-03-28T11:06:32.935Z,7.30
2019-03-28T11:09:03.613Z,7.37
2019-03-28T11:11:33.136Z,6.17
2019-03-28T11:14:02.958Z,8.15
2019-03-28T11:16:32.563Z,10.03
2019-03-28T11:19:02.173Z,9.10
2019-03-28T11:21:34.174Z,9.63
2019-03-28T11:24:02.692Z,8.50
2019-03-28T11:26:31.908Z,9.25
2019-03-28T11:29:01.239Z,6.75
2019-03-28T11:31:30.468Z,6.50
2019-03-28T11:33:59.705Z,6.10
2019-03-28T11:36:29.252Z,8.50
2019-03-28T11:38:58.782Z,7.10
2019-03-28T11:41:28.590Z,6.85
2019-03-28T11:43:58.175Z,7.22
2019-03-28T11:46:27.719Z,6.65
2019-03-28T11:48:57.231Z,7.30
2019-03-28T11:51:26.556Z,7.95
2019-03-28T11:53:56.194Z,7.15
2019-03-28T11:56:25.726Z,9.65
2019-03-28T11:58:55.272Z,8.35
2019-03-28T12:01:24.578Z,8.65
2019-03-28T12:03:54.062Z,8.15
2019-03-28T12:06:23.658Z,9.43
2019-03-28T12:08:55.822Z,7.80
2019-03-28T12:11:23.901Z,12.58
2019-03-28T12:13:53.117Z,13.75
2019-03-28T12:16:22.715Z,12.90
2019-03-28T12:18:52.227Z,12.60
2019-03-28T12:21:21.548Z,10.28
2019-03-28T12:23:50.788Z,7.97
2019-03-28T12:26:20.338Z,12.23
2019-03-28T12:28:50.099Z,7.58
2019-03-28T12:31:20.218Z,8.55
2019-03-28T12:33:49.448Z,10.18
2019-03-28T12:36:19.415Z,10.20
2019-03-28T12:38:48.872Z,9.48
2019-03-28T12:41:18.365Z,13.05
2019-03-28T12:43:47.591Z,9.00
2019-03-28T12:46:17.369Z,10.13
2019-03-28T12:48:46.840Z,9.93
2019-03-28T12:51:16.103Z,11.70
2019-03-28T12:53:45.601Z,7.03
2019-03-28T12:56:16.162Z,10.08
2019-03-28T12:58:45.664Z,11.40
2019-03-28T13:01:15.139Z,9.70
2019-03-28T13:03:46.119Z,7.55
2019-03-28T13:06:16.126Z,11.35
2019-03-28T13:08:45.731Z,7.30
2019-03-28T13:11:15.611Z,8.95
2019-03-28T13:13:45.138Z,9.43
2019-03-28T13:16:14.608Z,8.25
2019-03-28T13:18:44.358Z,13.18
2019-03-28T13:21:14.279Z,7.87
2019-03-28T13:23:44.112Z,11.05
2019-03-28T13:26:13.625Z,9.58
2019-03-28T13:28:43.645Z,10.23
2019-03-28T13:31:13.397Z,7.10
2019-03-28T13:33:42.955Z,8.48
2019-03-28T13:36:12.169Z,9.30
2019-03-28T13:38:41.991Z,8.88
2019-03-28T13:41:11.493Z,8.63
2019-03-28T13:43:40.963Z,10.75
2019-03-28T13:46:10.459Z,8.28
2019-03-28T13:48:40.191Z,7.97
2019-03-28T13:51:09.435Z,9.93
2019-03-28T13:53:40.095Z,10.60
2019-03-28T13:56:09.669Z,12.55
2019-03-28T13:58:39.453Z,13.10
2019-03-28T14:01:09.162Z,11.03
2019-03-28T14:03:38.678Z,11.33
2019-03-28T14:06:08.734Z,12.65
2019-03-28T14:08:37.959Z,13.13
2019-03-28T14:11:07.808Z,10.63
2019-03-28T14:13:37.555Z,10.75
2019-03-28T14:16:07.041Z,16.57
2019-03-28T14:18:36.520Z,12.50
2019-03-28T14:21:06.084Z,20.15
2019-03-28T14:23:35.313Z,12.07
2019-03-28T14:26:04.877Z,13.60
2019-03-28T14:28:34.106Z,9.03
2019-03-28T14:31:03.325Z,14.70
2019-03-28T14:33:32.781Z,10.98
2019-03-28T14:36:02.029Z,11.57
2019-03-28T14:38:31.793Z,9.35
2019-03-28T14:41:01.060Z,8.73
2019-03-28T14:43:30.398Z,10.53
2019-03-28T14:45:59.890Z,9.93
2019-03-28T14:48:29.127Z,14.93
2019-03-28T14:50:58.356Z,12.07
2019-03-28T14:53:28.733Z,9.98
2019-03-28T14:55:59.317Z,9.88
2019-03-28T14:58:29.633Z,10.45
2019-03-28T15:00:58.968Z,10.03
2019-03-28T15:03:28.186Z,8.00
2019-03-28T15:05:58.554Z,12.43
2019-03-28T15:08:27.986Z,12.18
2019-03-28T15:10:57.564Z,9.93
2019-03-28T15:13:27.390Z,13.45
2019-03-28T15:15:56.637Z,11.68
2019-03-28T15:18:26.213Z,12.07
2019-03-28T15:20:55.887Z,10.88
2019-03-28T15:23:25.468Z,11.63
2019-03-28T15:25:55.084Z,9.83
2019-03-28T15:28:24.402Z,8.90
2019-03-28T15:30:53.694Z,9.58
2019-03-28T15:33:23.023Z,10.40
2019-03-28T15:35:52.832Z,9.60
2019-03-28T15:38:22.063Z,9.93
2019-03-28T15:40:51.632Z,12.58
2019-03-28T15:43:21.143Z,8.35
2019-03-28T15:45:51.318Z,9.53
2019-03-28T15:48:20.567Z,11.63
2019-03-28T15:50:49.811Z,8.33
2019-03-28T15:53:19.395Z,9.18
2019-03-28T15:55:48.742Z,7.83
2019-03-28T15:58:23.412Z,7.35
2019-03-28T16:00:49.469Z,10.20
2019-03-28T16:03:18.947Z,8.43
2019-03-28T16:05:58.232Z,11.03
2019-03-28T16:08:19.435Z,8.17
2019-03-28T16:10:49.182Z,8.83
2019-03-28T16:13:18.661Z,8.35
2019-03-28T16:15:48.180Z,10.43
2019-03-28T16:18:17.427Z,9.13
2019-03-28T16:20:47.356Z,13.20
2019-03-28T16:23:16.635Z,11.10
2019-03-28T16:25:46.387Z,10.18
2019-03-28T16:28:15.874Z,9.60
2019-03-28T16:30:45.127Z,11.25
2019-03-28T16:33:14.358Z,10.68
2019-03-28T16:35:43.871Z,10.98
2019-03-28T16:38:13.178Z,9.90
2019-03-28T16:40:42.698Z,11.57
2019-03-28T16:43:11.995Z,12.07
2019-03-28T16:45:41.833Z,12.30
2019-03-28T16:48:11.065Z,12.05
2019-03-28T16:50:40.350Z,14.13
2019-03-28T16:53:09.893Z,14.47
2019-03-28T16:55:39.801Z,12.05
2019-03-28T16:58:09.172Z,16.20
2019-03-28T17:00:39.468Z,15.30
2019-03-28T17:03:09.682Z,16.42
2019-03-28T17:05:39.258Z,16.87
2019-03-28T17:08:08.729Z,13.83
2019-03-28T17:11:02.994Z,15.10
2019-03-28T17:13:32.315Z,16.37
2019-03-28T17:16:01.590Z,12.80
2019-03-28T17:18:31.390Z,12.20
2019-03-28T17:21:01.652Z,15.35
2019-03-28T17:23:31.211Z,15.83
2019-03-28T17:26:00.495Z,17.15
2019-03-28T17:28:30.472Z,14.47
2019-03-28T17:31:00.352Z,14.85
2019-03-28T17:33:29.839Z,18.40
2019-03-28T17:35:59.618Z,19.45
2019-03-28T17:38:28.997Z,14.40
2019-03-28T17:40:58.483Z,14.93
2019-03-28T17:43:27.740Z,15.63
2019-03-28T17:45:56.986Z,19.37
2019-03-28T17:48:28.521Z,17.92
2019-03-28T17:50:57.505Z,14.00
2019-03-28T17:53:26.974Z,29.50
2019-03-28T17:55:56.216Z,20.80
2019-03-28T17:58:25.429Z,15.85
2019-03-28T18:00:54.734Z,16.10
2019-03-28T18:03:31.151Z,15.50
2019-03-28T18:05:58.271Z,15.03
2019-03-28T18:08:26.567Z,15.00
2019-03-28T18:10:56.205Z,19.90
2019-03-28T18:13:25.372Z,19.85
2019-03-28T18:15:54.885Z,22.62
2019-03-28T18:18:24.101Z,23.85
2019-03-28T18:20:53.813Z,13.90
2019-03-28T18:23:23.758Z,25.80
2019-03-28T18:25:53.183Z,23.87
2019-03-28T18:28:23.254Z,19.92
2019-03-28T18:30:52.491Z,25.82
2019-03-28T18:33:21.966Z,27.93
2019-03-28T18:35:51.454Z,32.40
2019-03-28T18:38:20.929Z,34.75
2019-03-28T18:40:50.687Z,32.65
2019-03-28T18:43:19.915Z,17.67
2019-03-28T18:45:49.153Z,40.65
2019-03-28T18:48:29.052Z,30.20
2019-03-28T18:50:49.510Z,27.02
2019-03-28T18:53:19.000Z,30.35
2019-03-28T18:55:48.311Z,32.00
2019-03-28T18:58:17.819Z,32.25
2019-03-28T19:00:48.363Z,30.45
2019-03-28T19:03:17.878Z,27.20
2019-03-28T19:05:48.692Z,16.42
2019-03-28T19:08:18.549Z,19.48
2019-03-28T19:10:50.747Z,14.15
2019-03-28T19:13:18.769Z,39.50
2019-03-28T19:15:47.995Z,40.55
2019-03-28T19:18:17.499Z,46.83
2019-03-28T19:20:46.724Z,45.33
2019-03-28T19:23:16.445Z,48.42
2019-03-28T19:25:47.136Z,38.75
2019-03-28T19:28:27.959Z,30.10
2019-03-28T19:30:48.036Z,29.30
2019-03-28T19:33:17.263Z,23.73
2019-03-28T19:35:47.655Z,28.92
2019-03-28T19:38:17.385Z,28.45
2019-03-28T19:40:46.949Z,22.55
2019-03-28T19:43:21.048Z,25.62
2019-03-28T19:45:47.640Z,22.35
2019-03-28T19:48:16.966Z,33.35
2019-03-28T19:50:46.458Z,43.52
2019-03-28T19:53:16.153Z,27.27
2019-03-28T19:55:45.392Z,18.50
2019-03-28T19:58:14.981Z,14.20
2019-03-28T20:00:44.616Z,14.83
2019-03-28T20:03:14.114Z,15.20
2019-03-28T20:05:48.091Z,14.10
2019-03-28T20:08:16.288Z,13.38
2019-03-28T20:10:45.923Z,14.00
2019-03-28T20:13:15.657Z,14.20
2019-03-28T20:15:44.880Z,15.18
2019-03-28T20:18:14.356Z,12.88
2019-03-28T20:20:44.088Z,12.78
2019-03-28T20:23:13.560Z,14.10
2019-03-28T20:25:43.102Z,13.20
2019-03-28T20:28:14.403Z,14.98
2019-03-28T20:30:43.781Z,12.43
2019-03-28T20:33:13.233Z,12.50
2019-03-28T20:35:42.721Z,14.68
2019-03-28T20:38:11.940Z,14.78
2019-03-28T20:40:43.328Z,10.90
2019-03-28T20:43:12.376Z,14.53
2019-03-28T20:45:41.591Z,12.88
2019-03-28T20:48:10.815Z,15.08
2019-03-28T20:50:40.115Z,13.30
2019-03-28T20:53:09.818Z,16.27
2019-03-28T20:55:39.083Z,14.45
2019-03-28T20:58:08.555Z,13.43
2019-03-28T21:00:40.932Z,13.65
2019-03-28T21:03:11.267Z,14.87
2019-03-28T21:05:41.606Z,14.05
2019-03-28T21:08:11.153Z,13.08
2019-03-28T21:10:41.559Z,13.55
2019-03-28T21:13:11.165Z,12.30
2019-03-28T21:15:40.659Z,14.85
2019-03-28T21:18:09.931Z,13.43
2019-03-28T21:20:39.795Z,16.95
2019-03-28T21:23:09.363Z,15.08
2019-03-28T21:25:39.010Z,18.77
2019-03-28T21:28:08.612Z,22.37
2019-03-28T21:30:47.162Z,15.50
2019-03-28T21:33:09.330Z,16.12
2019-03-28T21:35:39.208Z,17.05
2019-03-28T21:38:09.264Z,20.62
2019-03-28T21:40:38.565Z,20.75
2019-03-28T21:43:08.786Z,21.05
2019-03-28T21:45:38.067Z,25.62
2019-03-28T21:48:07.776Z,14.90
2019-03-28T21:50:38.271Z,15.23
2019-03-28T21:53:07.530Z,18.07
2019-03-28T21:55:37.135Z,13.68
2019-03-28T21:58:07.701Z,17.15
2019-03-28T22:00:37.551Z,19.77
2019-03-28T22:03:06.774Z,14.15
2019-03-28T22:05:36.278Z,15.88
2019-03-28T22:08:06.932Z,19.45
2019-03-28T22:10:36.518Z,23.92
2019-03-28T22:13:06.333Z,19.00
2019-03-28T22:15:35.643Z,16.70
2019-03-28T22:18:05.210Z,17.30
2019-03-28T22:20:36.064Z,17.55
2019-03-28T22:23:05.445Z,14.40
2019-03-28T22:25:34.880Z,17.35
2019-03-28T22:28:05.064Z,17.35
2019-03-28T22:30:34.357Z,15.72
2019-03-28T22:33:04.972Z,17.42
2019-03-28T22:35:34.510Z,17.98
2019-03-28T22:38:04.041Z,20.08
2019-03-28T22:40:33.608Z,17.42
2019-03-28T22:43:03.119Z,17.98
2019-03-28T22:45:32.728Z,15.93
2019-03-28T22:48:10.812Z,16.52
2019-03-28T22:50:32.938Z,16.15
2019-03-28T22:53:02.767Z,21.37
2019-03-28T22:55:32.529Z,19.80
2019-03-28T22:58:03.469Z,15.28
2019-03-28T23:00:44.940Z,18.30
2019-03-28T23:03:15.661Z,61.18
2019-03-28T23:05:45.066Z,50.43
2019-03-28T23:08:14.604Z,20.23
2019-03-28T23:10:44.164Z,19.65
2019-03-28T23:13:13.389Z,17.55
2019-03-28T23:15:43.134Z,18.60
2019-03-28T23:18:13.487Z,18.48
2019-03-28T23:20:43.001Z,19.57
2019-03-28T23:23:12.480Z,16.27
2019-03-28T23:25:41.968Z,15.80
2019-03-28T23:28:11.478Z,19.20
2019-03-28T23:30:40.650Z,21.68
2019-03-28T23:33:11.223Z,19.80
2019-03-28T23:35:41.004Z,20.12
2019-03-28T23:38:10.557Z,18.02
2019-03-28T23:40:40.058Z,16.00
2019-03-28T23:43:09.925Z,17.20
2019-03-28T23:45:39.677Z,16.37
2019-03-28T23:48:09.158Z,15.98
2019-03-28T23:50:38.923Z,16.35
2019-03-28T23:53:08.981Z,16.60
2019-03-28T23:55:38.750Z,17.35
2019-03-28T23:58:08.483Z,16.23
